• Join FlightAware (Why Join?)
  • Login
  • US Flag 
12:08AM EDT


 

Airport Tracker/Info


-or-


 

Live Flight TrackerFlight Track Log ✈ AWE3418 ✈ 24-Apr-2013 ✈ KCMH - KPHL

Flight Track Log - Related Links

Times and Time Zones

All times are in EDT time to prevent confusion due to time zone crossing. See the AWE3418 flight status page for this flight to view local times or setup timezone preferences in your user account.

Time Position Orientation Groundspeed Altitude Reporting Facility
EDT Latitude Longitude Course Direction KTS MPH feet Rate Location/Type
06:24PM 40.0028 -82.9075 273° West 140 161 1,300  Level Indianapolis Center
06:24PM 40.0031 -82.9139 273° West 155 178 1,800 2,160 Climbing Indianapolis Center
06:25PM 40.0014 -82.9589 267° West 187 215 3,100 2,400 Climbing Indianapolis Center
06:25PM 40.0022 -82.9928 272° West 192 221 4,300 2,040 Climbing Indianapolis Center
06:26PM 39.9819 -83.0725 252° West 236 272 6,200 2,640 Climbing Indianapolis Center
06:27PM 39.9244 -83.0153 143° Southeast 303 349 9,800 3,120 Climbing Indianapolis Center
06:28PM 39.9269 -82.8906 88° East 336 387 12,700 2,460 Climbing Indianapolis Center
06:29PM 39.9292 -82.7561 89° East 364 419 14,900 1,860 Climbing Indianapolis Center
06:30PM 39.9153 -82.6094 97° East 401 461 16,600 1,800 Climbing Indianapolis Center
06:31PM 39.9025 -82.4511 96° East 430 495 18,700 2,160 Climbing Indianapolis Center
06:32PM 39.8922 -82.2878 95° East 445 512 21,100 2,220 Climbing Indianapolis Center
06:33PM 39.8872 -82.0928 92° East 457 526 23,300 1,980 Climbing Indianapolis Center
06:35PM 39.9092 -81.9208 80° East 476 548 25,200 1,380 Climbing Indianapolis Center
06:36PM 39.9553 -81.7467 71° East 501 577 26,200 720 Climbing Indianapolis Center
06:37PM 40.0042 -81.5594 71° East 527 606 26,800 360 Climbing Indianapolis Center
06:38PM 40.0550 -81.3653 71° East 557 641 27,000 60 Climbing Indianapolis Center
06:39PM 40.1064 -81.1681 71° East 567 652 27,000  Level Indianapolis Center
06:39PM 40.1392 -81.0475 70° East 564 649 27,000  Level Cleveland Center
06:41PM 40.2142 -80.7439 72° East 564 649 27,000  Level Indianapolis Center
06:41PM 40.2381 -80.6592 70° East 559 643 27,000  Level Cleveland Center
06:42PM 40.2672 -80.4606 79° East 559 643 27,000  Level Cleveland Center
06:43PM 40.2753 -80.2675 87° East 538 619 27,000  Level Cleveland Center
06:44PM 40.3164 -80.0956 73° East 493 567 27,000  Level Cleveland Center
06:45PM 40.3739 -79.9508 62° Northeast 488 562 27,000  Level Cleveland Center
06:46PM 40.4397 -79.7892 62° Northeast 488 562 27,000 -60 Level Cleveland Center
06:47PM 40.5031 -79.6328 62° Northeast 488 562 26,900 -600 Descending Cleveland Center
06:48PM 40.5183 -79.4661 83° East 464 534 25,800 -960 Descending Cleveland Center
06:49PM 40.4544 -79.3469 125° Southeast 386 444 25,000 -420 Descending Cleveland Center
06:50PM 40.3700 -79.2450 137° Southeast 367 422 25,000  Level Cleveland Center
06:51PM 40.3328 -79.1069 109° East 390 449 25,000  Level Cleveland Center
06:52PM 40.3328 -78.9461 90° East 400 460 25,000  Level Cleveland Center
06:53PM 40.3303 -78.7800 91° East 426 490 25,000  Level Cleveland Center
06:54PM 40.3256 -78.6194 92° East 438 504 25,000  Level Cleveland Center
06:55PM 40.3225 -78.4508 91° East 448 516 25,000  Level Cleveland Center
06:56PM 40.3192 -78.2875 91° East 448 516 25,000  Level Cleveland Center
06:57PM 40.3158 -78.1214 91° East 448 516 25,000 -300 Level Cleveland Center
06:59PM 40.3108 -77.7614 91° East 455 524 24,200 -600 Descending New York Center
07:00PM 40.3089 -77.6169 91° East 445 512 23,100 -1,140 Descending New York Center
07:01PM 40.3422 -77.4703 73° East 422 486 22,000 -1,200 Descending New York Center
07:02PM 40.3692 -77.3258 76° East 422 486 20,800 -1,140 Descending New York Center
07:03PM 40.3422 -77.1733 103° East 388 447 19,800 -960 Descending New York Center
07:04PM 40.3217 -77.0489 102° East 388 447 19,000 -600 Descending New York Center
07:05PM 40.2942 -76.8967 103° East 394 453 18,600 -780 Descending New York Center
07:06PM 40.2697 -76.7667 104° East 381 438 17,500 -1,020 Descending New York Center
07:07PM 40.2469 -76.6369 103° East 376 433 16,600 -1,140 Descending New York Center
07:08PM 40.2239 -76.5125 104° East 376 433 15,300 -1,560 Descending New York Center
07:09PM 40.1953 -76.3542 103° East 367 422 13,400 -1,620 Descending FAA TRACON SMA TRACON (SMA)
07:10PM 40.1864 -76.3067 104° East 363 418 12,900 -1,500 Descending FAA TRACON SMA TRACON (SMA)
07:10PM 40.1789 -76.2672 104° East 357 411 12,400 -1,380 Descending FAA TRACON SMA TRACON (SMA)
07:11PM 40.1719 -76.2289 103° East 355 409 12,000 -1,080 Descending FAA TRACON SMA TRACON (SMA)
07:11PM 40.1650 -76.1906 103° East 354 407 11,700 -1,200 Descending FAA TRACON SMA TRACON (SMA)
07:11PM 40.1564 -76.1425 103° East 353 406 11,200 -1,440 Descending FAA TRACON SMA TRACON (SMA)
07:11PM 40.1494 -76.1042 103° East 353 406 10,800 -1,200 Descending FAA TRACON SMA TRACON (SMA)
07:12PM 40.1425 -76.0650 103° East 352 405 10,400 -1,320 Descending FAA TRACON SMA TRACON (SMA)
07:12PM 40.1333 -76.0200 105° East 347 399 9,900 -1,200 Descending FAA TRACON SMA TRACON (SMA)
07:13PM 40.1272 -75.9839 102° East 339 390 9,600 -1,080 Descending FAA TRACON SMA TRACON (SMA)
07:13PM 40.1200 -75.9489 105° East 335 386 9,200 -1,260 Descending FAA TRACON SMA TRACON (SMA)
07:13PM 40.1111 -75.9031 104° East 332 382 8,800 -1,200 Descending FAA TRACON SMA TRACON (SMA)
07:14PM 40.1042 -75.8678 104° East 330 380 8,400 -1,080 Descending FAA TRACON SMA TRACON (SMA)
07:14PM 40.0981 -75.8325 103° East 325 374 8,100 -660 Descending FAA TRACON SMA TRACON (SMA)
07:14PM 40.0900 -75.7886 103° East 324 373 8,000 -180 Descending FAA TRACON SMA TRACON (SMA)
07:14PM 40.0856 -75.7528 99° East 338 389 8,000  Level FAA TRACON SMA TRACON (SMA)
07:15PM 40.0900 -75.7167 81° East 324 373 8,000  Level FAA TRACON SMA TRACON (SMA)
07:15PM 40.0969 -75.6733 78° East 329 379 8,000  Level FAA TRACON SMA TRACON (SMA)
07:16PM 40.1036 -75.6356 77° East 328 377 8,000  Level FAA TRACON SMA TRACON (SMA)
07:16PM 40.1100 -75.5994 77° East 328 377 8,000  Level FAA TRACON SMA TRACON (SMA)
07:16PM 40.1164 -75.5633 77° East 330 380 8,000 -300 Level FAA TRACON SMA TRACON (SMA)
07:16PM 40.1244 -75.5183 77° East 330 380 7,800 -780 Descending FAA TRACON SMA TRACON (SMA)
07:17PM 40.1308 -75.4822 77° East 329 379 7,500 -1,080 Descending FAA TRACON SMA TRACON (SMA)
07:17PM 40.1383 -75.4389 77° East 329 379 7,100 -780 Descending FAA TRACON SMA TRACON (SMA)
07:17PM 40.1450 -75.4025 77° East 317 365 7,000 -180 Descending FAA TRACON SMA TRACON (SMA)
07:18PM 40.1508 -75.3708 76° East 300 345 7,000  Level FAA TRACON SMA TRACON (SMA)
07:18PM 40.1567 -75.3408 76° East 279 321 7,000  Level FAA TRACON SMA TRACON (SMA)
07:18PM 40.1633 -75.3044 77° East 265 305 7,000  Level FAA TRACON SMA TRACON (SMA)
07:19PM 40.1683 -75.2769 77° East 261 300 7,000  Level FAA TRACON SMA TRACON (SMA)
07:19PM 40.1658 -75.2500 97° East 279 321 7,000  Level FAA TRACON SMA TRACON (SMA)
07:19PM 40.1492 -75.2253 131° Southeast 218 251 7,000 -180 Level FAA TRACON SMA TRACON (SMA)
07:20PM 40.1325 -75.2197 166° South 202 232 6,900 -780 Descending FAA TRACON SMA TRACON (SMA)
07:20PM 40.1158 -75.2167 172° South 199 229 6,500 -1,080 Descending FAA TRACON SMA TRACON (SMA)
07:20PM 40.0944 -75.2119 170° South 197 227 6,200 -780 Descending FAA TRACON SMA TRACON (SMA)
07:21PM 40.0778 -75.2086 171° South 197 227 6,000 -300 Descending FAA TRACON SMA TRACON (SMA)
07:21PM 40.0611 -75.2053 171° South 196 226 6,000  Level FAA TRACON SMA TRACON (SMA)
07:21PM 40.0417 -75.1989 166° South 201 231 6,000  Level FAA TRACON SMA TRACON (SMA)
07:22PM 40.0236 -75.1922 164° South 201 231 6,000  Level FAA TRACON SMA TRACON (SMA)
07:22PM 40.0069 -75.1864 165° South 202 232 6,000  Level FAA TRACON SMA TRACON (SMA)
07:23PM 39.9894 -75.1686 142° Southeast 228 262 6,000  Level FAA TRACON SMA TRACON (SMA)
07:23PM 39.9825 -75.1431 110° East 250 288 6,000  Level FAA TRACON SMA TRACON (SMA)
07:23PM 39.9853 -75.1133 83° East 250 288 6,000  Level FAA TRACON SMA TRACON (SMA)
07:24PM 39.9919 -75.0808 75° East 244 281 6,000  Level FAA TRACON SMA TRACON (SMA)
07:24PM 40.0028 -75.0561 60° Northeast 253 291 6,000  Level FAA TRACON SMA TRACON (SMA)
07:24PM 40.0144 -75.0331 57° Northeast 246 283 6,000  Level FAA TRACON SMA TRACON (SMA)
07:24PM 40.0236 -75.0119 60° Northeast 241 277 6,000  Level FAA TRACON SMA TRACON (SMA)
07:25PM 40.0411 -74.9547 68° East 247 284 6,000  Level FAA TRACON SMA TRACON (SMA)
07:25PM 40.0469 -74.9267 75° East 248 285 6,000 -300 Level FAA TRACON SMA TRACON (SMA)
07:26PM 40.0550 -74.8936 72° East 246 283 5,800 -780 Descending FAA TRACON SMA TRACON (SMA)
07:26PM 40.0606 -74.8678 74° East 243 280 5,500 -900 Descending FAA TRACON SMA TRACON (SMA)
07:26PM 40.0633 -74.8428 82° East 242 278 5,200 -720 Descending FAA TRACON SMA TRACON (SMA)
07:27PM 40.0392 -74.8008 127° Southeast 207 238 4,800 -840 Descending FAA TRACON SMA TRACON (SMA)
07:27PM 40.0264 -74.7839 135° Southeast 203 234 4,400 -1,200 Descending FAA TRACON SMA TRACON (SMA)
07:28PM 40.0100 -74.7731 153° Southeast 171 197 4,000 -600 Descending FAA TRACON SMA TRACON (SMA)
07:28PM 39.9997 -74.7828 216° Southwest 153 176 4,000  Level FAA TRACON SMA TRACON (SMA)
07:28PM 39.9900 -74.7928 218° Southwest 147 169 4,000  Level FAA TRACON SMA TRACON (SMA)
07:29PM 39.9803 -74.8094 233° Southwest 147 169 4,000  Level FAA TRACON SMA TRACON (SMA)
07:29PM 39.9714 -74.8208 224° Southwest 149 171 4,000  Level FAA TRACON SMA TRACON (SMA)
07:30PM 39.9606 -74.8358 227° Southwest 146 168 4,000  Level FAA TRACON SMA TRACON (SMA)
07:30PM 39.9519 -74.8472 225° Southwest 146 168 4,000  Level FAA TRACON SMA TRACON (SMA)
07:30PM 39.9447 -74.8667 244° Southwest 156 180 4,000  Level FAA TRACON SMA TRACON (SMA)
07:31PM 39.9422 -74.8819 258° West 150 173 4,000  Level FAA TRACON SMA TRACON (SMA)
07:31PM 39.9386 -74.8992 255° West 159 183 4,000  Level FAA TRACON SMA TRACON (SMA)
07:31PM 39.9358 -74.9164 258° West 159 183 4,000  Level FAA TRACON SMA TRACON (SMA)
07:32PM 39.9314 -74.9328 251° West 162 186 4,000  Level FAA TRACON SMA TRACON (SMA)
07:32PM 39.9278 -74.9561 259° West 163 188 4,000 -300 Level FAA TRACON SMA TRACON (SMA)
07:32PM 39.9244 -74.9736 256° West 162 186 3,800 -600 Descending FAA TRACON SMA TRACON (SMA)
07:33PM 39.9211 -74.9911 256° West 162 186 3,600 -780 Descending FAA TRACON SMA TRACON (SMA)
07:33PM 39.9164 -75.0122 254° West 161 185 3,300 -900 Descending FAA TRACON SMA TRACON (SMA)
07:33PM 39.9136 -75.0306 259° West 163 188 3,000 -900 Descending FAA TRACON SMA TRACON (SMA)